sensor_id;sensor_type;location;lat;lon;timestamp;P1;durP1;ratioP1;P2;durP2;ratioP2
18681;SDS011;9471;51.168;4.154;2022-10-04T00:01:41;18.98;;;9.82;;
18681;SDS011;9471;51.168;4.154;2022-10-04T00:04:11;23.08;;;10.38;;
18681;SDS011;9471;51.168;4.154;2022-10-04T00:06:43;19.38;;;9.98;;
18681;SDS011;9471;51.168;4.154;2022-10-04T00:09:17;24.52;;;10.10;;
18681;SDS011;9471;51.168;4.154;2022-10-04T00:11:49;20.90;;;9.88;;
18681;SDS011;9471;51.168;4.154;2022-10-04T00:14:21;19.70;;;9.82;;
18681;SDS011;9471;51.168;4.154;2022-10-04T00:16:51;24.38;;;9.57;;
18681;SDS011;9471;51.168;4.154;2022-10-04T00:19:26;26.15;;;9.98;;
18681;SDS011;9471;51.168;4.154;2022-10-04T00:22:08;23.08;;;10.50;;
18681;SDS011;9471;51.168;4.154;2022-10-04T00:33:49;27.00;;;11.13;;
18681;SDS011;9471;51.168;4.154;2022-10-04T00:36:30;23.17;;;10.90;;
18681;SDS011;9471;51.168;4.154;2022-10-04T00:39:12;23.85;;;11.18;;
18681;SDS011;9471;51.168;4.154;2022-10-04T00:41:47;26.23;;;10.55;;
18681;SDS011;9471;51.168;4.154;2022-10-04T00:44:29;28.52;;;11.80;;
18681;SDS011;9471;51.168;4.154;2022-10-04T00:47:11;28.25;;;10.65;;
18681;SDS011;9471;51.168;4.154;2022-10-04T00:49:45;22.35;;;10.57;;
18681;SDS011;9471;51.168;4.154;2022-10-04T00:52:17;26.90;;;11.98;;
18681;SDS011;9471;51.168;4.154;2022-10-04T00:54:46;21.08;;;11.55;;
18681;SDS011;9471;51.168;4.154;2022-10-04T00:57:17;24.55;;;11.13;;
18681;SDS011;9471;51.168;4.154;2022-10-04T00:59:49;24.70;;;11.15;;
18681;SDS011;9471;51.168;4.154;2022-10-04T01:02:22;20.85;;;10.95;;
18681;SDS011;9471;51.168;4.154;2022-10-04T01:04:54;28.45;;;10.82;;
18681;SDS011;9471;51.168;4.154;2022-10-04T01:07:25;20.92;;;11.35;;
18681;SDS011;9471;51.168;4.154;2022-10-04T01:09:56;22.20;;;11.50;;
18681;SDS011;9471;51.168;4.154;2022-10-04T01:12:35;23.63;;;11.15;;
18681;SDS011;9471;51.168;4.154;2022-10-04T01:15:06;23.60;;;10.68;;
18681;SDS011;9471;51.168;4.154;2022-10-04T01:17:40;18.60;;;10.48;;
18681;SDS011;9471;51.168;4.154;2022-10-04T01:22:55;22.13;;;10.77;;
18681;SDS011;9471;51.168;4.154;2022-10-04T01:28:08;26.90;;;11.30;;
18681;SDS011;9471;51.168;4.154;2022-10-04T01:30:35;25.85;;;12.20;;
18681;SDS011;9471;51.168;4.154;2022-10-04T01:33:02;27.40;;;11.50;;
18681;SDS011;9471;51.168;4.154;2022-10-04T01:35:32;23.00;;;11.47;;
18681;SDS011;9471;51.168;4.154;2022-10-04T01:38:01;24.20;;;11.30;;
18681;SDS011;9471;51.168;4.154;2022-10-04T01:40:30;24.02;;;11.18;;
18681;SDS011;9471;51.168;4.154;2022-10-04T01:42:59;26.47;;;12.20;;
18681;SDS011;9471;51.168;4.154;2022-10-04T01:45:31;24.43;;;11.70;;
18681;SDS011;9471;51.168;4.154;2022-10-04T01:48:04;26.10;;;11.37;;
18681;SDS011;9471;51.168;4.154;2022-10-04T01:50:36;23.23;;;11.50;;
18681;SDS011;9471;51.168;4.154;2022-10-04T01:53:09;23.67;;;11.27;;
18681;SDS011;9471;51.168;4.154;2022-10-04T01:55:41;23.17;;;11.90;;
18681;SDS011;9471;51.168;4.154;2022-10-04T01:58:12;25.63;;;11.93;;
18681;SDS011;9471;51.168;4.154;2022-10-04T02:00:42;23.43;;;11.43;;
18681;SDS011;9471;51.168;4.154;2022-10-04T02:03:15;25.40;;;11.93;;
18681;SDS011;9471;51.168;4.154;2022-10-04T02:05:48;26.80;;;12.47;;
18681;SDS011;9471;51.168;4.154;2022-10-04T02:08:21;29.97;;;12.77;;
18681;SDS011;9471;51.168;4.154;2022-10-04T02:10:51;26.83;;;13.63;;
18681;SDS011;9471;51.168;4.154;2022-10-04T02:13:20;24.42;;;13.07;;
18681;SDS011;9471;51.168;4.154;2022-10-04T02:15:51;32.17;;;14.33;;
18681;SDS011;9471;51.168;4.154;2022-10-04T02:18:20;25.43;;;14.17;;
18681;SDS011;9471;51.168;4.154;2022-10-04T02:20:49;29.70;;;13.03;;
18681;SDS011;9471;51.168;4.154;2022-10-04T02:23:17;24.17;;;14.20;;
18681;SDS011;9471;51.168;4.154;2022-10-04T02:25:46;28.10;;;14.43;;
18681;SDS011;9471;51.168;4.154;2022-10-04T02:28:14;33.70;;;14.67;;
18681;SDS011;9471;51.168;4.154;2022-10-04T02:30:43;29.47;;;15.53;;
18681;SDS011;9471;51.168;4.154;2022-10-04T02:33:33;28.07;;;14.73;;
18681;SDS011;9471;51.168;4.154;2022-10-04T02:36:04;25.73;;;14.53;;
18681;SDS011;9471;51.168;4.154;2022-10-04T02:38:35;30.93;;;15.50;;
18681;SDS011;9471;51.168;4.154;2022-10-04T02:41:08;28.47;;;15.53;;
18681;SDS011;9471;51.168;4.154;2022-10-04T02:43:42;33.23;;;15.33;;
18681;SDS011;9471;51.168;4.154;2022-10-04T02:46:16;24.40;;;15.03;;
18681;SDS011;9471;51.168;4.154;2022-10-04T02:48:48;30.40;;;15.00;;
18681;SDS011;9471;51.168;4.154;2022-10-04T02:51:19;28.60;;;15.27;;
18681;SDS011;9471;51.168;4.154;2022-10-04T02:53:55;31.33;;;16.90;;
18681;SDS011;9471;51.168;4.154;2022-10-04T02:56:28;28.07;;;15.07;;
18681;SDS011;9471;51.168;4.154;2022-10-04T02:58:58;28.53;;;15.00;;
18681;SDS011;9471;51.168;4.154;2022-10-04T03:01:34;31.67;;;15.13;;
18681;SDS011;9471;51.168;4.154;2022-10-04T03:04:08;29.73;;;14.47;;
18681;SDS011;9471;51.168;4.154;2022-10-04T03:06:39;28.33;;;16.03;;
18681;SDS011;9471;51.168;4.154;2022-10-04T03:09:09;30.60;;;14.80;;
18681;SDS011;9471;51.168;4.154;2022-10-04T03:11:37;29.40;;;15.97;;
18681;SDS011;9471;51.168;4.154;2022-10-04T03:14:06;29.53;;;15.27;;
18681;SDS011;9471;51.168;4.154;2022-10-04T03:16:38;25.20;;;15.33;;
18681;SDS011;9471;51.168;4.154;2022-10-04T03:19:08;28.33;;;14.57;;
18681;SDS011;9471;51.168;4.154;2022-10-04T03:21:37;34.73;;;15.77;;
18681;SDS011;9471;51.168;4.154;2022-10-04T03:24:08;28.47;;;15.03;;
18681;SDS011;9471;51.168;4.154;2022-10-04T03:26:41;31.20;;;16.30;;
18681;SDS011;9471;51.168;4.154;2022-10-04T03:29:11;30.97;;;15.27;;
18681;SDS011;9471;51.168;4.154;2022-10-04T03:31:41;31.07;;;15.77;;
18681;SDS011;9471;51.168;4.154;2022-10-04T03:34:12;31.77;;;15.13;;
18681;SDS011;9471;51.168;4.154;2022-10-04T03:36:41;26.53;;;14.87;;
18681;SDS011;9471;51.168;4.154;2022-10-04T03:39:10;28.80;;;14.63;;
18681;SDS011;9471;51.168;4.154;2022-10-04T03:41:42;27.43;;;14.47;;
18681;SDS011;9471;51.168;4.154;2022-10-04T03:44:11;28.03;;;14.63;;
18681;SDS011;9471;51.168;4.154;2022-10-04T03:46:41;30.53;;;15.50;;
18681;SDS011;9471;51.168;4.154;2022-10-04T03:49:10;30.70;;;15.43;;
18681;SDS011;9471;51.168;4.154;2022-10-04T03:51:41;30.77;;;15.87;;
18681;SDS011;9471;51.168;4.154;2022-10-04T03:54:12;30.07;;;15.13;;
18681;SDS011;9471;51.168;4.154;2022-10-04T03:56:44;31.37;;;15.67;;
18681;SDS011;9471;51.168;4.154;2022-10-04T03:59:12;26.63;;;14.33;;
18681;SDS011;9471;51.168;4.154;2022-10-04T04:01:43;28.53;;;14.57;;
18681;SDS011;9471;51.168;4.154;2022-10-04T04:04:16;30.90;;;15.63;;
18681;SDS011;9471;51.168;4.154;2022-10-04T04:06:50;26.80;;;15.40;;
18681;SDS011;9471;51.168;4.154;2022-10-04T04:09:25;34.30;;;16.40;;
18681;SDS011;9471;51.168;4.154;2022-10-04T04:12:01;27.93;;;15.33;;
18681;SDS011;9471;51.168;4.154;2022-10-04T04:14:35;29.37;;;14.80;;
18681;SDS011;9471;51.168;4.154;2022-10-04T04:17:18;29.47;;;15.70;;
18681;SDS011;9471;51.168;4.154;2022-10-04T04:19:58;30.37;;;15.67;;
18681;SDS011;9471;51.168;4.154;2022-10-04T04:22:27;29.83;;;15.77;;
18681;SDS011;9471;51.168;4.154;2022-10-04T04:24:58;29.90;;;17.13;;
18681;SDS011;9471;51.168;4.154;2022-10-04T04:27:28;32.27;;;16.60;;
18681;SDS011;9471;51.168;4.154;2022-10-04T04:29:59;35.67;;;18.37;;
18681;SDS011;9471;51.168;4.154;2022-10-04T04:32:29;32.30;;;17.80;;
18681;SDS011;9471;51.168;4.154;2022-10-04T04:34:59;33.37;;;17.70;;
18681;SDS011;9471;51.168;4.154;2022-10-04T04:37:31;36.17;;;17.97;;
18681;SDS011;9471;51.168;4.154;2022-10-04T04:40:15;36.80;;;16.80;;
18681;SDS011;9471;51.168;4.154;2022-10-04T04:42:45;31.07;;;18.13;;
18681;SDS011;9471;51.168;4.154;2022-10-04T04:45:14;31.03;;;16.77;;
18681;SDS011;9471;51.168;4.154;2022-10-04T04:47:45;29.50;;;16.40;;
18681;SDS011;9471;51.168;4.154;2022-10-04T04:50:15;34.67;;;17.27;;
18681;SDS011;9471;51.168;4.154;2022-10-04T04:52:45;29.20;;;16.57;;
18681;SDS011;9471;51.168;4.154;2022-10-04T04:55:17;30.90;;;17.27;;
18681;SDS011;9471;51.168;4.154;2022-10-04T04:57:48;28.13;;;16.60;;
18681;SDS011;9471;51.168;4.154;2022-10-04T05:00:20;30.17;;;16.03;;
18681;SDS011;9471;51.168;4.154;2022-10-04T05:02:54;35.67;;;17.47;;
18681;SDS011;9471;51.168;4.154;2022-10-04T05:05:23;31.33;;;15.03;;
18681;SDS011;9471;51.168;4.154;2022-10-04T05:08:02;40.63;;;15.67;;
18681;SDS011;9471;51.168;4.154;2022-10-04T05:10:38;29.53;;;14.93;;
18681;SDS011;9471;51.168;4.154;2022-10-04T05:13:08;31.50;;;14.73;;
18681;SDS011;9471;51.168;4.154;2022-10-04T05:15:36;25.53;;;14.63;;
18681;SDS011;9471;51.168;4.154;2022-10-04T05:18:12;27.83;;;14.30;;
18681;SDS011;9471;51.168;4.154;2022-10-04T05:20:46;28.80;;;14.50;;
18681;SDS011;9471;51.168;4.154;2022-10-04T05:23:17;37.30;;;16.10;;
18681;SDS011;9471;51.168;4.154;2022-10-04T05:25:45;32.50;;;15.50;;
18681;SDS011;9471;51.168;4.154;2022-10-04T05:28:13;26.73;;;14.30;;
18681;SDS011;9471;51.168;4.154;2022-10-04T05:30:45;33.40;;;15.40;;
18681;SDS011;9471;51.168;4.154;2022-10-04T05:33:23;28.73;;;15.37;;
18681;SDS011;9471;51.168;4.154;2022-10-04T05:36:07;33.20;;;15.13;;
18681;SDS011;9471;51.168;4.154;2022-10-04T05:39:07;30.37;;;14.97;;
18681;SDS011;9471;51.168;4.154;2022-10-04T05:41:44;30.03;;;14.00;;
18681;SDS011;9471;51.168;4.154;2022-10-04T05:44:18;26.87;;;14.73;;
18681;SDS011;9471;51.168;4.154;2022-10-04T05:46:50;26.20;;;13.73;;
18681;SDS011;9471;51.168;4.154;2022-10-04T05:49:19;24.60;;;13.80;;
18681;SDS011;9471;51.168;4.154;2022-10-04T05:51:48;28.67;;;13.63;;
18681;SDS011;9471;51.168;4.154;2022-10-04T05:54:18;28.10;;;14.33;;
18681;SDS011;9471;51.168;4.154;2022-10-04T05:56:56;29.00;;;14.57;;
18681;SDS011;9471;51.168;4.154;2022-10-04T05:59:58;29.20;;;14.00;;
18681;SDS011;9471;51.168;4.154;2022-10-04T06:02:36;28.10;;;13.83;;
18681;SDS011;9471;51.168;4.154;2022-10-04T06:05:22;27.57;;;14.53;;
18681;SDS011;9471;51.168;4.154;2022-10-04T06:07:56;26.87;;;13.53;;
18681;SDS011;9471;51.168;4.154;2022-10-04T06:10:30;27.03;;;13.43;;
18681;SDS011;9471;51.168;4.154;2022-10-04T06:13:31;29.83;;;14.77;;
18681;SDS011;9471;51.168;4.154;2022-10-04T06:16:12;24.27;;;14.00;;
18681;SDS011;9471;51.168;4.154;2022-10-04T06:22:06;26.27;;;13.60;;
18681;SDS011;9471;51.168;4.154;2022-10-04T06:24:40;33.97;;;18.30;;
18681;SDS011;9471;51.168;4.154;2022-10-04T06:27:13;25.93;;;13.73;;
18681;SDS011;9471;51.168;4.154;2022-10-04T06:29:48;29.67;;;15.33;;
18681;SDS011;9471;51.168;4.154;2022-10-04T06:41:22;29.37;;;15.17;;
18681;SDS011;9471;51.168;4.154;2022-10-04T06:44:13;30.43;;;14.83;;
18681;SDS011;9471;51.168;4.154;2022-10-04T06:46:51;30.27;;;15.23;;
18681;SDS011;9471;51.168;4.154;2022-10-04T06:49:34;28.37;;;14.17;;
18681;SDS011;9471;51.168;4.154;2022-10-04T06:52:17;36.07;;;15.30;;
18681;SDS011;9471;51.168;4.154;2022-10-04T06:55:11;34.43;;;14.90;;
18681;SDS011;9471;51.168;4.154;2022-10-04T06:57:56;29.83;;;14.07;;
18681;SDS011;9471;51.168;4.154;2022-10-04T07:00:38;30.57;;;14.53;;
18681;SDS011;9471;51.168;4.154;2022-10-04T07:03:15;24.63;;;14.00;;
18681;SDS011;9471;51.168;4.154;2022-10-04T07:05:46;30.83;;;15.13;;
18681;SDS011;9471;51.168;4.154;2022-10-04T07:08:18;26.33;;;13.37;;
18681;SDS011;9471;51.168;4.154;2022-10-04T07:10:58;27.37;;;14.53;;
18681;SDS011;9471;51.168;4.154;2022-10-04T07:13:30;29.03;;;13.80;;
18681;SDS011;9471;51.168;4.154;2022-10-04T07:16:08;31.37;;;14.00;;
18681;SDS011;9471;51.168;4.154;2022-10-04T07:18:58;25.20;;;13.47;;
18681;SDS011;9471;51.168;4.154;2022-10-04T07:21:35;27.10;;;13.27;;
18681;SDS011;9471;51.168;4.154;2022-10-04T07:24:08;25.13;;;13.77;;
18681;SDS011;9471;51.168;4.154;2022-10-04T07:26:40;24.50;;;12.70;;
18681;SDS011;9471;51.168;4.154;2022-10-04T07:29:12;26.03;;;12.60;;
18681;SDS011;9471;51.168;4.154;2022-10-04T07:31:46;28.27;;;13.07;;
18681;SDS011;9471;51.168;4.154;2022-10-04T07:34:21;27.30;;;13.60;;
18681;SDS011;9471;51.168;4.154;2022-10-04T07:36:52;30.77;;;15.20;;
18681;SDS011;9471;51.168;4.154;2022-10-04T07:39:22;19.73;;;12.43;;
18681;SDS011;9471;51.168;4.154;2022-10-04T07:41:54;27.77;;;13.33;;
18681;SDS011;9471;51.168;4.154;2022-10-04T07:44:25;24.00;;;12.60;;
18681;SDS011;9471;51.168;4.154;2022-10-04T07:47:00;22.93;;;11.70;;
18681;SDS011;9471;51.168;4.154;2022-10-04T07:49:39;25.60;;;12.57;;
18681;SDS011;9471;51.168;4.154;2022-10-04T07:55:04;27.60;;;11.87;;
18681;SDS011;9471;51.168;4.154;2022-10-04T07:57:41;24.77;;;12.70;;
18681;SDS011;9471;51.168;4.154;2022-10-04T08:00:15;23.23;;;12.07;;
18681;SDS011;9471;51.168;4.154;2022-10-04T08:02:50;22.97;;;11.60;;
18681;SDS011;9471;51.168;4.154;2022-10-04T08:05:36;22.53;;;11.30;;
18681;SDS011;9471;51.168;4.154;2022-10-04T08:08:16;25.90;;;11.93;;
18681;SDS011;9471;51.168;4.154;2022-10-04T08:11:00;25.50;;;11.40;;
18681;SDS011;9471;51.168;4.154;2022-10-04T08:13:41;18.83;;;11.07;;
18681;SDS011;9471;51.168;4.154;2022-10-04T08:16:18;23.05;;;11.20;;
18681;SDS011;9471;51.168;4.154;2022-10-04T08:19:00;28.70;;;11.68;;
18681;SDS011;9471;51.168;4.154;2022-10-04T08:21:41;26.50;;;11.90;;
18681;SDS011;9471;51.168;4.154;2022-10-04T08:24:17;22.70;;;11.55;;
18681;SDS011;9471;51.168;4.154;2022-10-04T08:26:55;29.02;;;11.57;;
18681;SDS011;9471;51.168;4.154;2022-10-04T08:29:45;22.30;;;10.68;;
18681;SDS011;9471;51.168;4.154;2022-10-04T08:32:25;25.67;;;10.63;;
18681;SDS011;9471;51.168;4.154;2022-10-04T08:35:10;21.35;;;10.50;;
18681;SDS011;9471;51.168;4.154;2022-10-04T08:38:07;24.25;;;10.73;;
18681;SDS011;9471;51.168;4.154;2022-10-04T08:44:07;24.58;;;10.77;;
18681;SDS011;9471;51.168;4.154;2022-10-04T08:53:26;21.65;;;11.32;;
18681;SDS011;9471;51.168;4.154;2022-10-04T08:56:17;25.23;;;11.75;;
18681;SDS011;9471;51.168;4.154;2022-10-04T08:59:09;22.27;;;11.32;;
18681;SDS011;9471;51.168;4.154;2022-10-04T09:02:05;19.27;;;11.10;;
18681;SDS011;9471;51.168;4.154;2022-10-04T09:05:08;22.48;;;10.77;;
18681;SDS011;9471;51.168;4.154;2022-10-04T09:07:53;21.73;;;10.32;;
18681;SDS011;9471;51.168;4.154;2022-10-04T09:10:37;24.48;;;10.30;;
18681;SDS011;9471;51.168;4.154;2022-10-04T09:13:24;21.42;;;10.13;;
18681;SDS011;9471;51.168;4.154;2022-10-04T09:21:49;21.45;;;10.50;;
18681;SDS011;9471;51.168;4.154;2022-10-04T09:27:49;21.70;;;10.60;;
18681;SDS011;9471;51.168;4.154;2022-10-04T09:30:48;20.88;;;10.38;;
18681;SDS011;9471;51.168;4.154;2022-10-04T09:33:37;22.08;;;10.27;;
18681;SDS011;9471;51.168;4.154;2022-10-04T09:42:59;23.05;;;10.05;;
18681;SDS011;9471;51.168;4.154;2022-10-04T09:45:57;25.25;;;10.93;;
18681;SDS011;9471;51.168;4.154;2022-10-04T09:48:35;19.83;;;8.60;;
18681;SDS011;9471;51.168;4.154;2022-10-04T09:51:23;20.05;;;9.70;;
18681;SDS011;9471;51.168;4.154;2022-10-04T09:54:13;18.13;;;7.80;;
18681;SDS011;9471;51.168;4.154;2022-10-04T09:57:07;16.80;;;9.32;;
18681;SDS011;9471;51.168;4.154;2022-10-04T10:05:54;23.08;;;9.27;;
18681;SDS011;9471;51.168;4.154;2022-10-04T10:08:38;22.02;;;9.20;;
18681;SDS011;9471;51.168;4.154;2022-10-04T10:11:14;18.50;;;8.57;;
18681;SDS011;9471;51.168;4.154;2022-10-04T10:14:12;23.05;;;9.40;;
18681;SDS011;9471;51.168;4.154;2022-10-04T10:17:02;15.60;;;8.35;;
18681;SDS011;9471;51.168;4.154;2022-10-04T10:22:52;19.45;;;8.25;;
18681;SDS011;9471;51.168;4.154;2022-10-04T10:25:43;15.40;;;8.18;;
18681;SDS011;9471;51.168;4.154;2022-10-04T10:28:21;22.70;;;8.27;;
18681;SDS011;9471;51.168;4.154;2022-10-04T10:31:20;18.85;;;8.32;;
18681;SDS011;9471;51.168;4.154;2022-10-04T10:34:12;29.02;;;10.55;;
18681;SDS011;9471;51.168;4.154;2022-10-04T10:36:59;19.15;;;7.90;;
18681;SDS011;9471;51.168;4.154;2022-10-04T10:48:38;14.88;;;8.23;;
18681;SDS011;9471;51.168;4.154;2022-10-04T10:51:25;21.83;;;8.20;;
18681;SDS011;9471;51.168;4.154;2022-10-04T10:54:28;22.85;;;8.20;;
18681;SDS011;9471;51.168;4.154;2022-10-04T10:57:31;19.33;;;7.95;;
18681;SDS011;9471;51.168;4.154;2022-10-04T11:00:19;15.73;;;8.38;;
18681;SDS011;9471;51.168;4.154;2022-10-04T11:02:53;18.63;;;8.35;;
18681;SDS011;9471;51.168;4.154;2022-10-04T11:09:18;17.02;;;8.23;;
18681;SDS011;9471;51.168;4.154;2022-10-04T11:18:13;16.13;;;7.75;;
18681;SDS011;9471;51.168;4.154;2022-10-04T11:24:45;16.65;;;7.25;;
18681;SDS011;9471;51.168;4.154;2022-10-04T11:27:39;15.75;;;8.63;;
18681;SDS011;9471;51.168;4.154;2022-10-04T11:30:16;19.60;;;8.48;;
18681;SDS011;9471;51.168;4.154;2022-10-04T11:33:01;17.48;;;8.48;;
18681;SDS011;9471;51.168;4.154;2022-10-04T11:36:00;17.95;;;7.95;;
18681;SDS011;9471;51.168;4.154;2022-10-04T11:38:48;22.33;;;8.75;;
18681;SDS011;9471;51.168;4.154;2022-10-04T11:41:26;17.63;;;8.30;;
18681;SDS011;9471;51.168;4.154;2022-10-04T11:44:13;17.65;;;8.18;;
18681;SDS011;9471;51.168;4.154;2022-10-04T11:47:06;19.50;;;8.75;;
18681;SDS011;9471;51.168;4.154;2022-10-04T11:49:48;18.17;;;9.45;;
18681;SDS011;9471;51.168;4.154;2022-10-04T11:52:38;18.73;;;8.80;;
18681;SDS011;9471;51.168;4.154;2022-10-04T11:55:45;16.88;;;8.68;;
18681;SDS011;9471;51.168;4.154;2022-10-04T11:58:39;16.23;;;8.35;;
18681;SDS011;9471;51.168;4.154;2022-10-04T12:04:29;19.77;;;8.75;;
18681;SDS011;9471;51.168;4.154;2022-10-04T12:07:32;19.83;;;8.18;;
18681;SDS011;9471;51.168;4.154;2022-10-04T12:10:16;16.63;;;8.10;;
18681;SDS011;9471;51.168;4.154;2022-10-04T12:12:53;17.88;;;8.65;;
18681;SDS011;9471;51.168;4.154;2022-10-04T12:15:49;18.05;;;8.57;;
18681;SDS011;9471;51.168;4.154;2022-10-04T12:18:43;18.27;;;8.32;;
18681;SDS011;9471;51.168;4.154;2022-10-04T12:21:47;20.85;;;8.50;;
18681;SDS011;9471;51.168;4.154;2022-10-04T12:24:30;18.13;;;8.80;;
18681;SDS011;9471;51.168;4.154;2022-10-04T12:27:36;17.90;;;8.32;;
18681;SDS011;9471;51.168;4.154;2022-10-04T12:30:22;18.88;;;8.40;;
18681;SDS011;9471;51.168;4.154;2022-10-04T12:33:02;16.67;;;7.35;;
18681;SDS011;9471;51.168;4.154;2022-10-04T12:35:42;18.92;;;8.52;;
18681;SDS011;9471;51.168;4.154;2022-10-04T12:38:38;17.42;;;7.88;;
18681;SDS011;9471;51.168;4.154;2022-10-04T12:41:27;15.70;;;7.65;;
18681;SDS011;9471;51.168;4.154;2022-10-04T12:44:05;20.50;;;7.90;;
18681;SDS011;9471;51.168;4.154;2022-10-04T12:46:46;14.98;;;7.22;;
18681;SDS011;9471;51.168;4.154;2022-10-04T12:49:26;17.48;;;6.65;;
18681;SDS011;9471;51.168;4.154;2022-10-04T12:52:03;15.93;;;7.38;;
18681;SDS011;9471;51.168;4.154;2022-10-04T12:54:37;16.63;;;7.13;;
18681;SDS011;9471;51.168;4.154;2022-10-04T12:57:13;13.52;;;6.18;;
18681;SDS011;9471;51.168;4.154;2022-10-04T13:00:01;14.73;;;6.55;;
18681;SDS011;9471;51.168;4.154;2022-10-04T13:02:47;22.30;;;7.40;;
18681;SDS011;9471;51.168;4.154;2022-10-04T13:05:36;17.92;;;6.40;;
18681;SDS011;9471;51.168;4.154;2022-10-04T13:08:21;14.95;;;6.05;;
18681;SDS011;9471;51.168;4.154;2022-10-04T13:11:06;11.50;;;5.60;;
18681;SDS011;9471;51.168;4.154;2022-10-04T13:16:48;16.20;;;6.15;;
18681;SDS011;9471;51.168;4.154;2022-10-04T13:19:21;13.48;;;6.15;;
18681;SDS011;9471;51.168;4.154;2022-10-04T13:22:00;12.02;;;5.60;;
18681;SDS011;9471;51.168;4.154;2022-10-04T13:24:39;12.88;;;5.85;;
18681;SDS011;9471;51.168;4.154;2022-10-04T13:27:21;16.17;;;6.10;;
18681;SDS011;9471;51.168;4.154;2022-10-04T13:29:58;12.40;;;6.10;;
18681;SDS011;9471;51.168;4.154;2022-10-04T13:32:32;12.40;;;6.07;;
18681;SDS011;9471;51.168;4.154;2022-10-04T13:35:10;12.73;;;5.50;;
18681;SDS011;9471;51.168;4.154;2022-10-04T13:37:43;15.85;;;5.55;;
18681;SDS011;9471;51.168;4.154;2022-10-04T13:43:23;14.18;;;6.03;;
18681;SDS011;9471;51.168;4.154;2022-10-04T13:46:09;14.13;;;5.85;;
18681;SDS011;9471;51.168;4.154;2022-10-04T13:49:00;14.75;;;5.80;;
18681;SDS011;9471;51.168;4.154;2022-10-04T13:51:45;12.95;;;5.50;;
18681;SDS011;9471;51.168;4.154;2022-10-04T13:54:39;12.32;;;5.85;;
18681;SDS011;9471;51.168;4.154;2022-10-04T13:57:36;15.00;;;5.70;;
18681;SDS011;9471;51.168;4.154;2022-10-04T14:00:09;14.18;;;5.28;;
18681;SDS011;9471;51.168;4.154;2022-10-04T14:02:47;11.68;;;5.35;;
18681;SDS011;9471;51.168;4.154;2022-10-04T14:08:50;12.88;;;5.07;;
18681;SDS011;9471;51.168;4.154;2022-10-04T14:18:10;11.18;;;5.03;;
18681;SDS011;9471;51.168;4.154;2022-10-04T14:30:16;10.75;;;4.38;;
18681;SDS011;9471;51.168;4.154;2022-10-04T14:32:56;8.73;;;3.47;;
18681;SDS011;9471;51.168;4.154;2022-10-04T14:35:48;11.93;;;4.10;;
18681;SDS011;9471;51.168;4.154;2022-10-04T14:38:36;12.98;;;3.67;;
18681;SDS011;9471;51.168;4.154;2022-10-04T14:41:30;9.68;;;4.07;;
18681;SDS011;9471;51.168;4.154;2022-10-04T14:50:28;11.88;;;3.78;;
18681;SDS011;9471;51.168;4.154;2022-10-04T14:53:04;10.25;;;3.60;;
18681;SDS011;9471;51.168;4.154;2022-10-04T14:55:48;14.02;;;3.50;;
18681;SDS011;9471;51.168;4.154;2022-10-04T14:58:25;9.18;;;3.70;;
18681;SDS011;9471;51.168;4.154;2022-10-04T15:01:04;8.05;;;3.35;;
18681;SDS011;9471;51.168;4.154;2022-10-04T15:03:46;10.95;;;3.05;;
18681;SDS011;9471;51.168;4.154;2022-10-04T15:06:27;8.65;;;3.30;;
18681;SDS011;9471;51.168;4.154;2022-10-04T15:12:15;7.40;;;2.92;;
18681;SDS011;9471;51.168;4.154;2022-10-04T15:18:22;10.82;;;3.10;;
18681;SDS011;9471;51.168;4.154;2022-10-04T15:20:56;8.40;;;3.13;;
18681;SDS011;9471;51.168;4.154;2022-10-04T15:23:29;9.00;;;3.65;;
18681;SDS011;9471;51.168;4.154;2022-10-04T15:26:03;8.27;;;2.67;;
18681;SDS011;9471;51.168;4.154;2022-10-04T15:28:42;10.18;;;3.13;;
18681;SDS011;9471;51.168;4.154;2022-10-04T15:31:25;6.97;;;2.70;;
18681;SDS011;9471;51.168;4.154;2022-10-04T15:34:01;10.45;;;3.13;;
18681;SDS011;9471;51.168;4.154;2022-10-04T15:36:40;11.80;;;3.20;;
18681;SDS011;9471;51.168;4.154;2022-10-04T15:42:31;13.70;;;4.05;;
18681;SDS011;9471;51.168;4.154;2022-10-04T15:45:03;11.73;;;4.40;;
18681;SDS011;9471;51.168;4.154;2022-10-04T15:47:51;9.73;;;3.70;;
18681;SDS011;9471;51.168;4.154;2022-10-04T15:50:52;9.85;;;3.53;;
18681;SDS011;9471;51.168;4.154;2022-10-04T15:53:35;8.70;;;3.47;;
18681;SDS011;9471;51.168;4.154;2022-10-04T15:56:34;10.60;;;3.70;;
18681;SDS011;9471;51.168;4.154;2022-10-04T15:59:26;12.35;;;3.50;;
18681;SDS011;9471;51.168;4.154;2022-10-04T16:05:06;9.02;;;3.83;;
18681;SDS011;9471;51.168;4.154;2022-10-04T16:08:01;10.35;;;3.92;;
18681;SDS011;9471;51.168;4.154;2022-10-04T16:10:54;10.65;;;4.20;;
18681;SDS011;9471;51.168;4.154;2022-10-04T16:13:35;14.05;;;4.55;;
18681;SDS011;9471;51.168;4.154;2022-10-04T16:16:34;12.95;;;3.85;;
18681;SDS011;9471;51.168;4.154;2022-10-04T16:19:36;11.65;;;4.07;;
18681;SDS011;9471;51.168;4.154;2022-10-04T16:22:12;7.43;;;3.58;;
18681;SDS011;9471;51.168;4.154;2022-10-04T16:24:46;11.38;;;4.80;;
18681;SDS011;9471;51.168;4.154;2022-10-04T16:27:21;12.88;;;5.40;;
18681;SDS011;9471;51.168;4.154;2022-10-04T16:30:16;8.82;;;3.50;;
18681;SDS011;9471;51.168;4.154;2022-10-04T16:33:01;12.13;;;4.35;;
18681;SDS011;9471;51.168;4.154;2022-10-04T16:35:47;11.85;;;4.43;;
18681;SDS011;9471;51.168;4.154;2022-10-04T16:38:27;13.93;;;5.15;;
18681;SDS011;9471;51.168;4.154;2022-10-04T16:41:08;11.27;;;4.82;;
18681;SDS011;9471;51.168;4.154;2022-10-04T16:43:46;13.18;;;5.20;;
18681;SDS011;9471;51.168;4.154;2022-10-04T16:46:20;10.95;;;4.93;;
18681;SDS011;9471;51.168;4.154;2022-10-04T16:48:56;11.73;;;5.03;;
18681;SDS011;9471;51.168;4.154;2022-10-04T16:51:33;13.23;;;4.85;;
18681;SDS011;9471;51.168;4.154;2022-10-04T16:54:17;11.82;;;4.93;;
18681;SDS011;9471;51.168;4.154;2022-10-04T16:57:12;10.90;;;5.45;;
18681;SDS011;9471;51.168;4.154;2022-10-04T16:59:44;14.63;;;5.22;;
18681;SDS011;9471;51.168;4.154;2022-10-04T17:02:29;17.02;;;6.00;;
18681;SDS011;9471;51.168;4.154;2022-10-04T17:05:31;12.95;;;5.35;;
18681;SDS011;9471;51.168;4.154;2022-10-04T17:08:17;13.52;;;5.35;;
18681;SDS011;9471;51.168;4.154;2022-10-04T17:11:11;20.60;;;6.07;;
18681;SDS011;9471;51.168;4.154;2022-10-04T17:14:00;14.10;;;5.82;;
18681;SDS011;9471;51.168;4.154;2022-10-04T17:16:34;14.73;;;5.82;;
18681;SDS011;9471;51.168;4.154;2022-10-04T17:22:02;16.35;;;6.47;;
18681;SDS011;9471;51.168;4.154;2022-10-04T17:24:41;14.27;;;6.22;;
18681;SDS011;9471;51.168;4.154;2022-10-04T17:27:20;11.60;;;5.75;;
18681;SDS011;9471;51.168;4.154;2022-10-04T17:29:56;15.65;;;6.00;;
18681;SDS011;9471;51.168;4.154;2022-10-04T17:32:31;13.10;;;5.90;;
18681;SDS011;9471;51.168;4.154;2022-10-04T17:35:14;12.77;;;6.55;;
18681;SDS011;9471;51.168;4.154;2022-10-04T17:38:05;13.70;;;6.60;;
18681;SDS011;9471;51.168;4.154;2022-10-04T17:40:36;14.48;;;6.57;;
18681;SDS011;9471;51.168;4.154;2022-10-04T17:43:15;15.82;;;6.38;;
18681;SDS011;9471;51.168;4.154;2022-10-04T17:45:56;11.63;;;5.63;;
18681;SDS011;9471;51.168;4.154;2022-10-04T17:48:42;12.77;;;6.45;;
18681;SDS011;9471;51.168;4.154;2022-10-04T17:51:37;14.70;;;6.32;;
18681;SDS011;9471;51.168;4.154;2022-10-04T17:54:26;20.23;;;6.63;;
18681;SDS011;9471;51.168;4.154;2022-10-04T17:57:17;14.73;;;6.90;;
18681;SDS011;9471;51.168;4.154;2022-10-04T17:59:52;16.10;;;6.80;;
18681;SDS011;9471;51.168;4.154;2022-10-04T18:02:27;15.23;;;5.85;;
18681;SDS011;9471;51.168;4.154;2022-10-04T18:05:11;13.10;;;6.55;;
18681;SDS011;9471;51.168;4.154;2022-10-04T18:07:44;13.43;;;6.22;;
18681;SDS011;9471;51.168;4.154;2022-10-04T18:10:19;16.00;;;6.60;;